Time;durP1;ratioP1;P1;durP2;ratioP2;P2;SDS_P1;SDS_P2;PMS_P1;PMS_P2;Temp;Humidity;BMP_temperature;BMP_pressure;BME280_temperature;BME280_humidity;BME280_pressure;Samples;Min_cycle;Max_cycle;Signal;HPM_P1;HPM_P2
2021/07/26 00:00:47;;;;;;;20.65;10.60;;;;;;;26.06;70.21;99935.91;5036732;28;20060;-79
2021/07/26 00:03:52;;;;;;;22.40;10.35;;;;;;;26.11;69.25;99930.50;5036659;28;20057;-79
2021/07/26 00:06:56;;;;;;;18.13;10.20;;;;;;;26.20;69.02;99931.78;5036282;28;20052;-78
2021/07/26 00:10:03;;;;;;;20.98;10.25;;;;;;;26.17;68.57;99916.59;5036224;28;20432;-79
2021/07/26 00:13:07;;;;;;;21.90;11.32;;;;;;;26.19;68.78;99930.13;5035635;28;20056;-79
2021/07/26 00:16:12;;;;;;;23.58;12.40;;;;;;;26.09;69.45;99935.41;5058289;28;20393;-79
2021/07/26 00:19:16;;;;;;;24.67;12.23;;;;;;;25.95;69.19;99932.09;5035791;28;20052;-78
2021/07/26 00:22:20;;;;;;;20.27;11.55;;;;;;;26.02;68.89;99924.56;5036326;28;20483;-77
2021/07/26 00:25:25;;;;;;;17.92;11.45;;;;;;;25.98;69.41;99928.88;5035334;28;20057;-77
2021/07/26 00:28:30;;;;;;;17.27;11.00;;;;;;;25.89;68.96;99937.75;5035313;28;20060;-77
2021/07/26 00:31:41;;;;;;;19.02;11.20;;;;;;;25.85;69.43;99940.97;5036012;28;20496;-79
2021/07/26 00:34:47;;;;;;;16.00;11.52;;;;;;;25.91;69.27;99933.69;5035934;28;20053;-79
2021/07/26 00:37:51;;;;;;;25.10;13.85;;;;;;;25.83;69.48;99931.31;5035426;28;20523;-77
2021/07/26 00:40:56;;;;;;;20.15;11.52;;;;;;;25.89;68.69;99926.75;5035607;28;20057;-77
2021/07/26 00:44:00;;;;;;;16.60;10.98;;;;;;;25.88;68.81;99925.91;5035602;28;20052;-77
2021/07/26 00:47:04;;;;;;;14.85;11.30;;;;;;;25.88;68.68;99933.31;5035599;28;20060;-77
2021/07/26 00:50:10;;;;;;;19.52;12.02;;;;;;;25.90;67.82;99937.50;5035038;28;20072;-79
2021/07/26 00:53:14;;;;;;;14.02;11.48;;;;;;;25.91;67.42;99943.84;5035400;28;20064;-77
2021/07/26 00:56:19;;;;;;;17.27;12.23;;;;;;;25.80;68.14;99948.31;5035576;28;20048;-77
2021/07/26 00:59:23;;;;;;;15.95;10.85;;;;;;;25.83;67.94;99950.56;5023091;28;20057;-81
2021/07/26 01:02:28;;;;;;;18.77;11.80;;;;;;;25.78;67.31;99945.78;5035347;28;20068;-79
2021/07/26 01:05:33;;;;;;;15.50;11.27;;;;;;;25.72;67.22;99948.69;5036257;28;20049;-79
2021/07/26 01:08:37;;;;;;;17.33;11.18;;;;;;;25.67;67.25;99949.41;5023226;28;20048;-78
2021/07/26 01:11:43;;;;;;;21.83;11.50;;;;;;;25.68;67.66;99955.72;5035311;28;20072;-79
2021/07/26 01:14:47;;;;;;;18.52;12.38;;;;;;;25.67;66.93;99968.66;5034493;28;20056;-78
2021/07/26 01:18:14;;;;;;;16.90;12.35;;;;;;;25.58;67.17;99967.34;5034954;28;20049;-78
2021/07/26 01:21:20;;;;;;;14.85;11.10;;;;;;;25.62;67.36;99967.72;5034997;28;20049;-77
2021/07/26 01:24:24;;;;;;;15.50;10.55;;;;;;;25.57;68.27;99975.84;5034792;28;20488;-78
2021/07/26 01:27:29;;;;;;;17.30;11.30;;;;;;;25.53;68.09;99980.97;5033961;28;20057;-78
2021/07/26 01:30:33;;;;;;;18.33;12.55;;;;;;;25.50;67.95;99970.50;5034471;28;20060;-78
2021/07/26 01:33:39;;;;;;;18.70;11.10;;;;;;;25.48;68.15;99967.13;5056570;28;20068;-76
2021/07/26 01:36:43;;;;;;;18.80;11.57;;;;;;;25.45;68.20;99967.63;5034842;28;20057;-76
2021/07/26 01:39:48;;;;;;;17.45;12.30;;;;;;;25.52;67.67;99976.56;5034246;28;20053;-77
2021/07/26 01:43:00;;;;;;;14.15;11.27;;;;;;;25.47;67.86;99987.44;5034510;28;20049;-77
2021/07/26 01:46:22;;;;;;;16.10;11.10;;;;;;;25.42;67.66;99991.97;5034090;28;20052;-78
2021/07/26 01:49:29;;;;;;;17.67;11.55;;;;;;;25.35;68.00;99980.25;5033698;28;20499;-77
2021/07/26 01:52:34;;;;;;;20.55;11.15;;;;;;;25.34;67.73;99975.81;5033752;28;20048;-79
2021/07/26 01:55:38;;;;;;;16.48;11.07;;;;;;;25.29;67.64;99979.28;5034512;28;20056;-76
2021/07/26 01:58:52;;;;;;;17.23;11.07;;;;;;;25.26;67.10;99984.44;5033768;28;20076;-78
2021/07/26 02:01:56;;;;;;;16.45;10.88;;;;;;;25.24;67.65;99995.66;5033148;28;20048;-79
2021/07/26 02:05:01;;;;;;;14.40;10.50;;;;;;;25.24;66.95;99990.16;5033312;28;20053;-78
2021/07/26 02:08:05;;;;;;;18.65;10.88;;;;;;;25.21;67.57;99993.38;5034090;28;20060;-77
2021/07/26 02:11:10;;;;;;;16.42;9.77;;;;;;;25.19;67.23;99993.63;5034357;28;20056;-78
2021/07/26 02:14:14;;;;;;;19.98;10.15;;;;;;;25.17;67.23;99986.69;5034299;28;20052;-78
2021/07/26 02:17:18;;;;;;;16.83;10.82;;;;;;;25.14;66.91;99989.91;5033343;28;20056;-77
2021/07/26 02:20:23;;;;;;;17.67;9.95;;;;;;;25.17;66.55;99987.53;5033389;28;20385;-76
2021/07/26 02:23:27;;;;;;;17.02;9.77;;;;;;;25.11;67.33;99979.41;5033535;28;20052;-77
2021/07/26 02:26:31;;;;;;;13.48;9.90;;;;;;;25.06;66.71;99990.28;5033792;28;20056;-77
2021/07/26 02:29:36;;;;;;;17.17;11.25;;;;;;;25.00;67.78;99991.22;5034006;28;20064;-78
2021/07/26 02:32:40;;;;;;;16.58;10.57;;;;;;;24.93;67.58;99985.00;5033979;28;20385;-80
2021/07/26 02:35:44;;;;;;;17.77;9.60;;;;;;;24.95;67.21;99982.84;5034112;28;20368;-79
2021/07/26 02:38:49;;;;;;;13.00;10.27;;;;;;;24.94;67.31;99976.53;5033802;28;20056;-81
2021/07/26 02:41:54;;;;;;;21.50;11.43;;;;;;;24.87;67.47;99973.06;5033977;28;20053;-76
2021/07/26 02:45:00;;;;;;;15.35;10.80;;;;;;;24.83;67.85;99974.63;5033635;28;20053;-78
2021/07/26 02:48:05;;;;;;;20.23;10.90;;;;;;;24.75;67.93;99963.94;5033052;28;20519;-80
2021/07/26 02:51:09;;;;;;;17.50;11.13;;;;;;;24.76;67.94;99957.38;5033350;28;20052;-76
2021/07/26 02:54:13;;;;;;;16.75;11.88;;;;;;;24.73;68.02;99968.84;5033545;28;20048;-79
2021/07/26 02:57:17;;;;;;;17.88;10.98;;;;;;;24.75;68.10;99969.44;5033646;28;20495;-78
2021/07/26 03:00:22;;;;;;;22.17;11.30;;;;;;;24.75;68.16;99961.19;5033526;28;20052;-78
2021/07/26 03:03:26;;;;;;;16.70;12.40;;;;;;;24.79;67.75;99962.41;5032858;28;20060;-78
2021/07/26 03:06:31;;;;;;;17.65;10.88;;;;;;;24.81;68.32;99959.44;5032750;28;20112;-78
2021/07/26 03:09:35;;;;;;;19.00;11.88;;;;;;;24.83;67.70;99969.13;5033562;28;20068;-78
2021/07/26 03:12:40;;;;;;;15.55;12.15;;;;;;;24.83;67.92;99960.88;5023512;28;20060;-78
2021/07/26 03:15:44;;;;;;;15.38;12.07;;;;;;;24.79;68.17;99967.09;5059434;28;20068;-76
2021/07/26 03:18:48;;;;;;;19.75;13.85;;;;;;;24.61;69.04;99959.75;5036351;28;20496;-78
2021/07/26 03:22:28;;;;;;;20.75;13.10;;;;;;;24.48;69.38;99966.25;5037135;28;20044;-77
2021/07/26 03:25:33;;;;;;;16.58;12.45;;;;;;;24.45;70.16;99971.38;5045048;28;20052;-79
2021/07/26 03:28:38;;;;;;;19.52;12.73;;;;;;;24.31;70.35;99969.91;5036609;28;20380;-78
2021/07/26 03:31:42;;;;;;;17.27;14.40;;;;;;;24.09;71.19;99990.66;5037163;28;20056;-79
2021/07/26 03:34:46;;;;;;;20.95;14.35;;;;;;;23.80;72.08;99984.88;5037129;28;20049;-77
2021/07/26 03:37:54;;;;;;;21.52;14.07;;;;;;;23.67;73.27;100001.50;5037062;28;20044;-78
2021/07/26 03:40:58;;;;;;;23.73;13.98;;;;;;;23.65;73.45;100003.59;5037085;28;20038;-78
2021/07/26 03:44:02;;;;;;;17.95;11.15;;;;;;;23.66;74.00;99999.78;5036134;28;20033;-79
2021/07/26 03:47:07;;;;;;;19.88;11.13;;;;;;;23.72;73.54;99976.97;5036469;28;20487;-79
2021/07/26 03:50:13;;;;;;;17.13;11.90;;;;;;;23.77;73.30;99999.06;4997474;28;20053;-78
2021/07/26 03:53:18;;;;;;;19.75;10.25;;;;;;;23.69;73.08;99993.88;4996356;28;20057;-78
2021/07/26 03:56:22;;;;;;;16.80;10.93;;;;;;;23.67;73.12;99987.78;4997468;28;20053;-75
2021/07/26 03:59:26;;;;;;;15.32;10.73;;;;;;;23.74;73.20;99983.06;4997356;28;20085;-79
2021/07/26 04:02:31;;;;;;;14.48;10.90;;;;;;;23.82;73.31;99990.13;4997272;28;20069;-79
2021/07/26 04:06:11;;;;;;;16.05;11.05;;;;;;;23.95;72.67;100003.66;4996925;28;20065;-78
2021/07/26 04:09:07;;;;;;;13.95;11.52;;;;;;;24.07;72.36;100001.00;4996927;28;20047;-79
2021/07/26 04:12:18;;;;;;;18.35;11.98;;;;;;;24.11;72.08;99999.50;4996766;28;20046;-79
2021/07/26 04:15:22;;;;;;;15.40;12.13;;;;;;;24.08;71.93;99994.47;4996191;28;20433;-79
2021/07/26 04:18:28;;;;;;;16.65;12.15;;;;;;;24.10;71.86;100008.78;4995910;28;20049;-79
2021/07/26 04:21:33;;;;;;;15.63;12.90;;;;;;;24.11;72.30;100008.56;4996594;28;20046;-79
2021/07/26 04:24:37;;;;;;;17.88;12.50;;;;;;;24.16;72.42;100022.44;4995669;28;20038;-75
2021/07/26 04:27:42;;;;;;;19.25;12.43;;;;;;;24.25;71.40;100033.91;4996171;28;20042;-78
2021/07/26 04:31:05;;;;;;;;;;;;;;;24.28;71.33;100034.28;4996939;28;20046;-78
2021/07/26 04:34:11;;;;;;;19.27;11.68;;;;;;;24.50;70.03;100034.63;4996355;28;19914;-79
2021/07/26 04:37:15;;;;;;;15.15;11.43;;;;;;;24.69;69.07;100038.97;4996551;28;20054;-78
2021/07/26 04:40:19;;;;;;;19.58;12.60;;;;;;;24.86;68.39;100045.50;4996631;28;20046;-79
2021/07/26 04:43:23;;;;;;;16.42;12.00;;;;;;;25.03;67.86;100049.28;4996520;28;20486;-80
2021/07/26 04:46:28;;;;;;;14.55;11.07;;;;;;;25.26;67.68;100064.13;4996524;28;20046;-78
2021/07/26 04:49:32;;;;;;;17.20;12.52;;;;;;;25.36;66.46;100058.84;5029012;28;20049;-79
2021/07/26 04:52:37;;;;;;;16.38;11.35;;;;;;;25.56;66.29;100053.88;5034935;28;20050;-79
2021/07/26 04:55:42;;;;;;;19.85;12.35;;;;;;;25.69;65.34;100054.50;5034844;28;20045;-79
2021/07/26 04:59:04;;;;;;;14.40;11.52;;;;;;;25.90;64.86;100063.22;5035387;28;20053;-79
2021/07/26 05:02:08;;;;;;;16.23;11.57;;;;;;;26.05;63.92;100069.84;5034717;28;20049;-79
2021/07/26 05:05:13;;;;;;;13.50;10.27;;;;;;;26.30;63.72;100075.94;5035180;28;20042;-79
2021/07/26 05:08:17;;;;;;;28.40;12.82;;;;;;;26.29;63.07;100082.50;5035008;28;20053;-77
2021/07/26 05:11:23;;;;;;;15.32;10.57;;;;;;;26.42;62.35;100090.50;5034788;28;20037;-79
2021/07/26 05:14:28;;;;;;;55.90;50.25;;;;;;;26.67;61.53;100103.09;5035031;28;20042;-78
2021/07/26 05:17:32;;;;;;;65.30;58.58;;;;;;;27.02;60.39;100101.91;5035016;28;20485;-79
2021/07/26 05:20:55;;;;;;;21.98;19.75;;;;;;;27.43;59.06;100116.44;5035061;28;20049;-76
2021/07/26 05:24:00;;;;;;;18.80;11.32;;;;;;;27.56;57.62;100119.69;5034826;28;20041;-79
2021/07/26 05:27:07;;;;;;;17.48;10.60;;;;;;;27.45;58.11;100133.56;5034952;28;20045;-78
2021/07/26 05:30:12;;;;;;;13.52;10.07;;;;;;;27.02;59.22;100128.63;5034579;28;20049;-79
2021/07/26 05:33:17;;;;;;;14.90;9.70;;;;;;;26.79;59.93;100140.56;5034489;28;20042;-76
2021/07/26 05:36:24;;;;;;;16.55;9.57;;;;;;;26.70;60.43;100142.03;5034507;28;20052;-76
2021/07/26 05:39:29;;;;;;;16.80;8.82;;;;;;;26.86;60.20;100137.69;5034611;28;20056;-79
2021/07/26 05:42:33;;;;;;;16.15;9.45;;;;;;;27.17;59.21;100142.69;5034903;28;20056;-77
2021/07/26 05:45:38;;;;;;;12.32;7.97;;;;;;;28.10;56.25;100150.34;5034770;28;20484;-79
2021/07/26 05:48:42;;;;;;;11.10;9.30;;;;;;;29.00;53.01;100148.81;5033939;28;20064;-76
2021/07/26 05:51:46;;;;;;;14.27;8.82;;;;;;;29.85;50.56;100159.03;5034420;28;20056;-76
2021/07/26 05:54:51;;;;;;;12.25;8.43;;;;;;;30.95;48.30;100163.56;5034394;28;20049;-76
2021/07/26 05:57:57;;;;;;;9.95;8.07;;;;;;;31.78;46.08;100170.66;5034552;28;20052;-79
2021/07/26 06:04:24;;;;;;;11.65;7.35;;;;;;;31.01;47.15;100175.53;5034267;28;20048;-79
2021/07/26 06:07:29;;;;;;;12.00;8.05;;;;;;;30.45;48.34;100199.34;5034251;28;20068;-78
2021/07/26 06:10:33;;;;;;;15.73;7.97;;;;;;;29.81;49.91;100209.66;5034433;28;20053;-77
2021/07/26 06:13:38;;;;;;;15.95;8.15;;;;;;;29.11;52.14;100212.50;5034401;28;20056;-76
2021/07/26 06:16:51;;;;;;;13.65;9.00;;;;;;;28.39;53.55;100212.63;5034325;28;20052;-76
2021/07/26 06:19:55;;;;;;;12.07;8.27;;;;;;;28.05;55.08;100219.25;5034313;28;20495;-76
2021/07/26 06:22:59;;;;;;;13.00;8.52;;;;;;;27.98;55.02;100215.81;5033824;28;20053;-76
2021/07/26 06:26:05;;;;;;;18.85;9.30;;;;;;;28.11;54.78;100218.28;5034218;28;20048;-78
2021/07/26 06:29:10;;;;;;;14.18;9.40;;;;;;;27.98;55.95;100224.94;5033705;28;20060;-78
2021/07/26 06:32:14;;;;;;;11.63;9.15;;;;;;;27.80;56.27;100230.69;5033138;28;20049;-75
2021/07/26 06:35:20;;;;;;;13.02;8.63;;;;;;;27.80;56.48;100246.44;5034154;28;20104;-76
2021/07/26 06:38:24;;;;;;;16.63;10.13;;;;;;;27.59;56.80;100257.09;5034208;28;20056;-76
2021/07/26 06:41:28;;;;;;;11.90;8.90;;;;;;;27.52;57.64;100270.22;5033157;28;20049;-79
2021/07/26 06:44:33;;;;;;;15.88;9.20;;;;;;;27.43;57.97;100270.84;5033860;28;20056;-79
2021/07/26 06:47:37;;;;;;;17.55;9.88;;;;;;;27.43;58.28;100276.38;5035904;28;20056;-77
2021/07/26 06:50:41;;;;;;;26.83;10.18;;;;;;;27.43;57.75;100277.19;5038135;28;20048;-77
2021/07/26 06:53:46;;;;;;;22.77;10.40;;;;;;;27.28;58.61;100276.03;5037581;28;20046;-78
2021/07/26 06:56:50;;;;;;;15.98;8.70;;;;;;;27.45;58.51;100274.19;5037790;28;20045;-78
2021/07/26 06:59:55;;;;;;;19.70;8.10;;;;;;;28.11;56.50;100276.25;5038003;28;20056;-76
2021/07/26 07:02:59;;;;;;;17.52;9.43;;;;;;;28.87;54.19;100281.84;5037536;28;20503;-77
2021/07/26 07:06:08;;;;;;;18.50;9.15;;;;;;;28.99;53.83;100284.47;5037865;28;20380;-79
2021/07/26 07:09:13;;;;;;;15.65;9.75;;;;;;;28.95;53.27;100281.41;5037403;28;20052;-77
2021/07/26 07:12:18;;;;;;;14.30;9.95;;;;;;;29.38;52.46;100277.00;5037480;28;20045;-75
2021/07/26 07:15:23;;;;;;;13.90;9.80;;;;;;;29.31;52.69;100279.09;5037614;28;20052;-76
2021/07/26 07:18:28;;;;;;;14.52;8.90;;;;;;;29.02;53.47;100286.75;5037540;28;20056;-76
2021/07/26 07:21:33;;;;;;;11.77;8.70;;;;;;;28.91;54.25;100274.72;5037268;28;20053;-76
2021/07/26 07:24:37;;;;;;;15.38;9.50;;;;;;;28.55;54.91;100282.72;5037490;28;20048;-77
2021/07/26 07:27:41;;;;;;;18.67;10.07;;;;;;;28.19;56.03;100293.22;5037084;28;20108;-78
2021/07/26 07:30:46;;;;;;;13.82;9.63;;;;;;;28.07;57.07;100292.44;5037051;28;20484;-78
2021/07/26 07:33:50;;;;;;;14.07;10.35;;;;;;;28.34;56.16;100295.41;5037292;28;20392;-78
2021/07/26 07:36:57;;;;;;;14.10;8.82;;;;;;;28.52;55.56;100297.88;5036478;28;20377;-78
2021/07/26 07:40:01;;;;;;;18.35;9.65;;;;;;;28.66;55.18;100310.31;5037124;28;20052;-78
2021/07/26 07:43:06;;;;;;;18.20;9.60;;;;;;;28.73;54.78;100310.94;5037139;28;20072;-78
2021/07/26 07:46:11;;;;;;;16.20;9.93;;;;;;;28.78;54.98;100305.50;5037069;28;20060;-79
2021/07/26 07:49:15;;;;;;;20.05;10.35;;;;;;;28.88;54.37;100302.88;5036073;28;20056;-78
2021/07/26 07:52:20;;;;;;;18.77;10.45;;;;;;;28.85;54.89;100303.38;5036924;28;20049;-77
2021/07/26 07:55:24;;;;;;;24.67;11.40;;;;;;;28.96;54.59;100313.47;5036343;28;20038;-78
2021/07/26 07:58:29;;;;;;;21.67;11.25;;;;;;;29.10;54.43;100319.47;5035656;28;20071;-78
2021/07/26 08:01:33;;;;;;;28.02;12.93;;;;;;;29.12;54.67;100322.81;5036022;28;20480;-78
2021/07/26 08:04:39;;;;;;;28.08;14.13;;;;;;;28.73;56.04;100316.47;5036833;28;20080;-78
2021/07/26 08:07:44;;;;;;;33.60;13.77;;;;;;;29.89;53.31;100300.53;5036404;28;20038;-78
2021/07/26 08:10:48;;;;;;;23.05;11.63;;;;;;;31.31;49.64;100308.75;5036703;28;20045;-78
2021/07/26 08:13:53;;;;;;;36.65;14.40;;;;;;;32.06;48.15;100285.94;5036554;28;20457;-79
2021/07/26 08:17:01;;;;;;;28.95;14.18;;;;;;;33.61;44.58;100289.47;5035753;28;20049;-78
2021/07/26 08:20:08;;;;;;;23.42;11.02;;;;;;;36.69;38.62;100275.41;5036451;28;20061;-80
2021/07/26 08:23:13;;;;;;;31.85;12.50;;;;;;;38.05;36.08;100272.50;5036367;28;20045;-76
2021/07/26 08:26:17;;;;;;;22.85;13.57;;;;;;;39.90;33.41;100258.25;5036139;28;20045;-78
2021/07/26 08:29:21;;;;;;;29.60;13.82;;;;;;;40.83;32.00;100251.63;5036026;28;20404;-80
2021/07/26 08:32:26;;;;;;;27.60;14.15;;;;;;;39.49;33.48;100250.25;5036329;28;20049;-76
2021/07/26 08:35:31;;;;;;;31.38;15.20;;;;;;;37.85;37.00;100239.34;5035981;28;20388;-80
2021/07/26 08:38:35;;;;;;;36.05;14.73;;;;;;;37.04;38.54;100232.75;5036204;28;20050;-77
2021/07/26 08:41:43;;;;;;;34.28;13.98;;;;;;;36.37;39.86;100237.13;5035850;28;20037;-79
2021/07/26 08:44:47;;;;;;;30.15;13.38;;;;;;;36.26;39.96;100238.47;5035827;28;20041;-80
2021/07/26 08:47:53;;;;;;;32.50;15.77;;;;;;;35.65;41.21;100244.19;5035714;28;20050;-79
2021/07/26 08:51:01;;;;;;;28.83;14.20;;;;;;;34.83;42.44;100253.06;5035710;28;20049;-77
2021/07/26 08:54:10;;;;;;;29.35;13.90;;;;;;;34.95;41.83;100259.06;5035622;28;20428;-80
2021/07/26 08:57:15;;;;;;;26.13;13.65;;;;;;;34.79;42.65;100252.00;5035565;28;20046;-78
2021/07/26 09:00:20;;;;;;;29.02;14.88;;;;;;;34.37;43.26;100261.88;5035723;28;20041;-79
2021/07/26 09:03:25;;;;;;;24.42;12.80;;;;;;;34.16;44.12;100252.06;5035519;28;20381;-77
2021/07/26 09:06:29;;;;;;;28.45;15.57;;;;;;;33.82;44.56;100240.91;5035347;28;20037;-79
2021/07/26 09:09:46;;;;;;;24.25;13.23;;;;;;;34.15;44.54;100241.22;5034740;28;20053;-80
2021/07/26 09:12:55;;;;;;;26.25;14.60;;;;;;;34.18;44.26;100237.81;5035297;28;20045;-80
2021/07/26 09:16:22;;;;;;;28.67;14.70;;;;;;;34.01;44.49;100238.22;5035446;28;20477;-80
2021/07/26 09:19:28;;;;;;;27.90;15.05;;;;;;;33.99;44.65;100240.47;5035373;28;20045;-80
2021/07/26 09:22:38;;;;;;;24.45;13.57;;;;;;;33.78;45.83;100245.38;5035308;28;20046;-80
2021/07/26 09:25:46;;;;;;;27.55;15.70;;;;;;;33.40;46.45;100244.22;5034955;28;20041;-80
2021/07/26 09:28:51;;;;;;;28.85;15.13;;;;;;;33.18;47.39;100245.72;5034965;28;20045;-79
2021/07/26 09:31:59;;;;;;;26.40;16.30;;;;;;;32.44;48.55;100246.44;5034923;28;20045;-79
2021/07/26 09:35:07;;;;;;;28.58;15.07;;;;;;;32.83;48.08;100251.38;5034846;28;20389;-79
2021/07/26 09:38:13;;;;;;;30.10;15.02;;;;;;;32.66;48.00;100248.94;5034730;28;20049;-78
2021/07/26 09:41:38;;;;;;;27.52;16.17;;;;;;;32.57;48.29;100236.72;5034858;28;20053;-76
2021/07/26 09:44:44;;;;;;;26.77;14.27;;;;;;;32.11;49.12;100245.09;5033982;28;20045;-79
2021/07/26 09:48:10;;;;;;;18.17;13.18;;;;;;;32.36;48.49;100235.91;5034202;28;20046;-78
2021/07/26 09:51:17;;;;;;;23.88;12.90;;;;;;;32.40;48.12;100233.38;5034413;28;20396;-79
2021/07/26 09:54:39;;;;;;;23.58;13.48;;;;;;;32.91;47.11;100239.69;5034716;28;20046;-79
2021/07/26 09:57:44;;;;;;;20.38;12.05;;;;;;;33.46;46.11;100236.63;5034547;28;20041;-79
2021/07/26 10:00:54;;;;;;;20.42;13.07;;;;;;;33.80;45.07;100242.31;5034592;28;20053;-78
2021/07/26 10:04:00;;;;;;;21.90;13.02;;;;;;;33.55;44.99;100231.34;5034272;28;20049;-79
2021/07/26 10:07:04;;;;;;;21.88;14.55;;;;;;;33.27;46.24;100224.50;5033999;28;20045;-79
2021/07/26 10:10:09;;;;;;;30.10;14.25;;;;;;;32.77;47.21;100234.72;5034386;28;20053;-76
2021/07/26 10:13:14;;;;;;;20.45;13.35;;;;;;;32.76;47.30;100232.25;5033875;28;20045;-76
2021/07/26 10:16:19;;;;;;;27.27;13.50;;;;;;;32.19;48.77;100227.06;5034322;28;20046;-76
2021/07/26 10:19:24;;;;;;;23.10;13.30;;;;;;;32.47;48.58;100231.16;5034485;28;20042;-76
2021/07/26 10:22:29;;;;;;;26.30;14.75;;;;;;;32.63;47.95;100232.81;5033312;28;20041;-79
2021/07/26 10:25:43;;;;;;;18.20;12.15;;;;;;;32.66;47.57;100224.75;5034383;28;20046;-76
2021/07/26 10:28:55;;;;;;;21.15;14.23;;;;;;;32.63;47.99;100218.94;5034204;28;20053;-76
2021/07/26 10:32:28;;;;;;;25.33;12.68;;;;;;;32.28;47.81;100222.59;5034360;28;20045;-77
2021/07/26 10:35:46;;;;;;;18.85;12.93;;;;;;;32.64;46.64;100221.41;5034209;28;20468;-79
2021/07/26 10:38:54;;;;;;;25.30;13.85;;;;;;;32.36;47.84;100226.75;5033930;28;20053;-75
2021/07/26 10:42:02;;;;;;;22.88;13.95;;;;;;;32.34;48.42;100218.69;5034130;28;20045;-80
2021/07/26 10:45:07;;;;;;;19.60;12.43;;;;;;;32.06;48.91;100210.94;5033858;28;20045;-77
2021/07/26 10:48:20;;;;;;;26.67;14.90;;;;;;;32.14;48.66;100207.59;5033179;28;20477;-79
2021/07/26 10:51:39;;;;;;;24.25;13.88;;;;;;;32.10;48.74;100212.88;5033868;28;20041;-78
2021/07/26 10:54:43;;;;;;;23.27;13.23;;;;;;;32.16;48.34;100208.16;5034136;28;20049;-79
2021/07/26 10:57:49;;;;;;;20.27;12.50;;;;;;;32.36;48.17;100208.13;5034120;28;20057;-77
2021/07/26 11:01:16;;;;;;;23.45;14.43;;;;;;;32.37;48.60;100209.78;5033785;28;20041;-77
2021/07/26 11:04:36;;;;;;;19.10;10.70;;;;;;;32.35;46.52;100200.06;5033999;28;20053;-77
2021/07/26 11:07:40;;;;;;;23.38;10.48;;;;;;;31.87;46.91;100207.88;5033749;28;20045;-79
2021/07/26 11:10:53;;;;;;;15.68;9.85;;;;;;;31.87;46.70;100205.09;5033959;28;20045;-78
2021/07/26 11:13:58;;;;;;;20.60;10.40;;;;;;;32.09;46.18;100202.06;5033931;28;20493;-77
2021/07/26 11:17:11;;;;;;;23.45;10.50;;;;;;;32.15;46.04;100198.13;5033963;28;20049;-78
2021/07/26 11:20:53;;;;;;;20.10;10.48;;;;;;;32.28;45.65;100192.03;5033872;28;20054;-74
2021/07/26 11:23:57;;;;;;;19.10;11.20;;;;;;;31.96;46.59;100178.44;5033607;28;20049;-76
2021/07/26 11:27:02;;;;;;;25.38;10.90;;;;;;;31.99;47.09;100179.84;5033031;28;20049;-75
2021/07/26 11:30:11;;;;;;;22.33;11.10;;;;;;;31.80;47.28;100176.75;5033491;28;20053;-75
2021/07/26 11:33:16;;;;;;;23.98;12.43;;;;;;;31.76;48.10;100174.81;5034957;28;20046;-78
2021/07/26 11:36:22;;;;;;;19.92;11.48;;;;;;;32.04;47.71;100180.69;5037387;28;20053;-75
2021/07/26 11:39:26;;;;;;;26.35;11.95;;;;;;;31.98;47.88;100169.84;5037082;28;20046;-75
2021/07/26 11:42:39;;;;;;;18.45;11.48;;;;;;;31.82;47.93;100170.94;5036983;28;20380;-74
2021/07/26 11:45:47;;;;;;;21.50;11.23;;;;;;;31.87;47.37;100169.00;5036942;28;20049;-78
2021/07/26 11:48:59;;;;;;;20.13;10.32;;;;;;;32.37;45.95;100165.31;5058429;28;20393;-75
2021/07/26 11:52:08;;;;;;;22.23;10.57;;;;;;;32.68;45.84;100164.16;5037089;28;20045;-77
2021/07/26 11:55:14;;;;;;;21.88;10.35;;;;;;;32.53;45.80;100161.41;5059102;28;20045;-75
2021/07/26 11:58:26;;;;;;;20.13;9.48;;;;;;;32.50;45.29;100148.03;5036635;28;20049;-80
2021/07/26 12:01:30;;;;;;;21.05;9.73;;;;;;;32.75;45.18;100147.16;5035846;28;20397;-77
2021/07/26 12:04:35;;;;;;;28.15;10.27;;;;;;;32.61;46.00;100141.38;5036565;28;20484;-77
2021/07/26 12:07:44;;;;;;;26.98;12.00;;;;;;;32.12;47.38;100138.41;5036797;28;20123;-78
2021/07/26 12:10:49;;;;;;;27.92;11.45;;;;;;;32.28;46.68;100132.84;5036578;28;20480;-76
2021/07/26 12:13:53;;;;;;;17.40;11.05;;;;;;;32.23;46.89;100128.13;5036056;28;20037;-75
2021/07/26 12:17:03;;;;;;;20.95;10.63;;;;;;;32.23;46.58;100124.50;5057867;28;20041;-80
2021/07/26 12:20:08;;;;;;;18.55;9.23;;;;;;;32.59;45.80;100112.19;5035555;28;20050;-79
2021/07/26 12:23:18;;;;;;;21.38;10.13;;;;;;;32.97;45.20;100113.38;5035672;28;20053;-78
2021/07/26 12:26:23;;;;;;;20.45;10.43;;;;;;;33.02;44.82;100097.50;5035483;28;20049;-78
2021/07/26 12:29:29;;;;;;;17.45;10.27;;;;;;;32.82;45.66;100105.09;5035155;28;20049;-75
2021/07/26 12:32:48;;;;;;;24.50;12.55;;;;;;;32.48;46.92;100080.81;5035636;28;20042;-75
2021/07/26 12:36:12;;;;;;;21.90;10.82;;;;;;;32.78;46.88;100083.47;5035580;28;20053;-76
2021/07/26 12:39:18;;;;;;;18.02;10.82;;;;;;;32.76;46.33;100090.44;5035580;28;20041;-81
2021/07/26 12:42:23;;;;;;;18.48;11.32;;;;;;;32.74;46.53;100084.28;5035027;28;20042;-78
2021/07/26 12:45:28;;;;;;;28.38;11.05;;;;;;;32.79;46.40;100076.75;5034137;28;20045;-74
2021/07/26 12:48:34;;;;;;;25.55;11.02;;;;;;;32.70;46.39;100069.31;5034644;28;20050;-76
2021/07/26 12:51:38;;;;;;;24.80;10.95;;;;;;;32.60;45.72;100045.19;5035130;28;20049;-75
2021/07/26 12:54:44;;;;;;;21.85;11.23;;;;;;;32.78;45.47;100036.19;5035331;28;20045;-78
2021/07/26 12:57:48;;;;;;;20.70;10.50;;;;;;;32.57;46.17;100050.47;5034710;28;20049;-76
2021/07/26 13:00:54;;;;;;;23.05;11.80;;;;;;;31.92;48.42;100055.16;5035125;28;20045;-75
2021/07/26 13:03:59;;;;;;;24.65;11.48;;;;;;;31.93;48.53;100056.78;5035117;28;20041;-78
2021/07/26 13:07:03;;;;;;;23.35;11.55;;;;;;;31.66;48.83;100058.22;5034208;28;20045;-74
2021/07/26 13:10:08;;;;;;;18.05;10.48;;;;;;;31.69;48.18;100058.50;5034738;28;20049;-75
2021/07/26 13:13:15;;;;;;;25.33;11.00;;;;;;;31.89;47.82;100052.09;5034599;28;20041;-76
2021/07/26 13:16:20;;;;;;;19.13;9.63;;;;;;;31.70;47.92;100045.47;5033955;28;20034;-75
2021/07/26 13:19:24;;;;;;;25.05;9.35;;;;;;;31.64;48.15;100043.81;5034785;28;20057;-76
2021/07/26 13:22:29;;;;;;;21.63;9.35;;;;;;;31.29;49.19;100051.03;5045223;28;20491;-76
2021/07/26 13:25:33;;;;;;;21.83;9.23;;;;;;;31.49;49.19;100056.59;5034409;28;20072;-76
2021/07/26 13:28:38;;;;;;;21.40;9.63;;;;;;;31.48;49.18;100046.59;5034487;28;20369;-78
2021/07/26 13:31:42;;;;;;;25.13;10.18;;;;;;;31.37;49.32;100049.63;5033604;28;20449;-76
2021/07/26 13:34:47;;;;;;;20.42;9.75;;;;;;;31.49;48.97;100039.94;5034120;28;20046;-77
2021/07/26 13:37:51;;;;;;;18.42;8.93;;;;;;;31.69;48.66;100038.25;5034411;28;20048;-75
2021/07/26 13:40:56;;;;;;;23.48;9.00;;;;;;;31.69;47.73;100050.19;5033682;28;20072;-77
2021/07/26 13:44:00;;;;;;;17.67;8.95;;;;;;;31.38;48.63;100035.47;5034191;28;20396;-78
2021/07/26 13:47:05;;;;;;;23.17;9.15;;;;;;;31.56;47.86;100042.44;5034282;28;20405;-76
2021/07/26 13:50:09;;;;;;;24.13;9.00;;;;;;;31.50;48.30;100038.00;5034018;28;20507;-76
2021/07/26 13:53:14;;;;;;;18.45;9.48;;;;;;;31.68;48.94;100042.16;5034294;28;20053;-75
2021/07/26 13:56:18;;;;;;;15.32;8.57;;;;;;;31.67;48.39;100057.13;5033960;28;20056;-76
2021/07/26 13:59:23;;;;;;;18.73;9.70;;;;;;;31.56;49.44;100063.78;5033752;28;20064;-77
2021/07/26 14:02:28;;;;;;;26.55;11.23;;;;;;;31.62;49.10;100085.72;5033708;28;20159;-79
2021/07/26 14:05:33;;;;;;;29.92;8.57;;;;;;;31.77;47.10;100124.59;5032546;28;20049;-77
2021/07/26 14:08:37;;;;;;;25.67;7.28;;;;;;;31.33;46.46;100112.34;5033954;28;20060;-78
2021/07/26 14:11:41;;;;;;;20.02;6.78;;;;;;;30.76;48.34;100124.38;5033955;28;20391;-75
2021/07/26 14:14:46;;;;;;;23.48;6.25;;;;;;;29.98;50.41;100108.75;5033041;28;20057;-76
2021/07/26 14:17:50;;;;;;;31.48;7.53;;;;;;;29.55;50.88;100142.97;5033745;28;20048;-77